createdAt,value
2023-04-10T00:04:14.119Z,3.8
2023-04-10T00:10:33.973Z,3.8
2023-04-10T00:16:57.088Z,7.8
2023-04-10T00:23:17.021Z,7.8
2023-04-10T00:29:39.958Z,6.4
2023-04-10T00:36:00.148Z,6.4
2023-04-10T00:42:23.004Z,6.9
2023-04-10T00:48:43.010Z,6.9
2023-04-10T00:55:06.014Z,8.6
2023-04-10T01:01:26.000Z,8.6
2023-04-10T01:07:49.041Z,13.1
2023-04-10T01:14:09.019Z,13.1
2023-04-10T01:20:31.961Z,7.2
2023-04-10T01:26:52.125Z,7.2
2023-04-10T01:33:15.154Z,13.4
2023-04-10T01:39:35.012Z,13.4
2023-04-10T01:45:58.054Z,7.8
2023-04-10T01:52:17.957Z,7.8
2023-04-10T01:58:40.947Z,7.8
2023-04-10T02:05:01.024Z,7.8
2023-04-10T02:11:24.150Z,10.5
2023-04-10T02:17:43.993Z,10.5
2023-04-10T02:24:07.052Z,9.2
2023-04-10T02:30:26.980Z,9.2
2023-04-10T02:36:49.996Z,7.9
2023-04-10T02:43:10.070Z,7.9
2023-04-10T02:49:33.082Z,10.7
2023-04-10T02:55:52.942Z,10.7
2023-04-10T03:02:16.111Z,7.1
2023-04-10T03:08:36.022Z,7.1
2023-04-10T03:32:17.943Z,15.1
2023-04-10T03:38:40.934Z,15.1
2023-04-10T03:45:01.049Z,15.1
2023-04-10T03:51:23.983Z,10.7
2023-04-10T03:57:44.003Z,10.7
2023-04-10T04:04:07.141Z,4.7
2023-04-10T04:10:27.052Z,4.7
2023-04-10T04:16:50.115Z,5.3
2023-04-10T04:23:10.019Z,5.3
2023-04-10T04:29:33.057Z,6.2
2023-04-10T04:35:53.137Z,6.2
2023-04-10T04:42:16.076Z,10.4
2023-04-10T04:48:35.983Z,10.4
2023-04-10T04:54:59.064Z,7.1
2023-04-10T05:01:19.068Z,7.1
2023-04-10T05:07:42.047Z,13.9
2023-04-10T05:14:01.940Z,13.9
2023-04-10T05:20:24.924Z,6.9
2023-04-10T05:26:44.945Z,6.9
2023-04-10T05:33:08.058Z,6.2
2023-04-10T05:39:27.938Z,6.2
2023-04-10T05:45:51.127Z,8.2
2023-04-10T05:52:10.974Z,8.2
2023-04-10T05:58:33.901Z,5.7
2023-04-10T06:04:54.026Z,5.7
2023-04-10T06:11:17.047Z,13.4
2023-04-10T06:17:37.003Z,13.4
2023-04-10T06:24:00.036Z,6.1
2023-04-10T06:30:20.072Z,6.1
2023-04-10T06:36:42.912Z,6.2
2023-04-10T06:43:03.021Z,6.2
2023-04-10T06:49:25.903Z,6
2023-04-10T06:55:46.123Z,6
2023-04-10T07:02:09.101Z,7.7
2023-04-10T07:08:28.931Z,7.7
2023-04-10T07:14:52.009Z,8.4
2023-04-10T07:21:11.961Z,8.4
2023-04-10T07:27:34.969Z,10.8
2023-04-10T07:33:54.927Z,10.8
2023-04-10T07:40:17.939Z,5.2
2023-04-10T07:46:38.014Z,5.2
2023-04-10T07:53:01.003Z,6.1
2023-04-10T07:59:21.103Z,6.1
2023-04-10T08:05:43.960Z,5.4
2023-04-10T08:12:03.940Z,5.4
2023-04-10T08:18:27.034Z,6.4
2023-04-10T08:24:46.936Z,6.4
2023-04-10T08:31:09.934Z,7.1
2023-04-10T08:47:53.762Z,3.6
2023-04-10T08:54:16.420Z,6.4
2023-04-10T09:00:35.894Z,6.4
2023-04-10T09:06:59.073Z,6.4
2023-04-10T09:13:18.913Z,6.4
2023-04-10T09:19:41.902Z,3.2
2023-04-10T09:26:01.971Z,3.2
2023-04-10T09:32:24.910Z,12.1
2023-04-10T09:38:44.996Z,12.1
2023-04-10T09:45:07.966Z,2.8
2023-04-10T09:51:27.897Z,2.8
2023-04-10T09:57:50.920Z,1.6
2023-04-10T10:04:10.932Z,1.6
2023-04-10T10:10:33.915Z,4.2
2023-04-10T10:16:53.973Z,4.2
2023-04-10T10:23:16.948Z,2.5
2023-04-10T10:29:36.937Z,2.5
2023-04-10T10:35:59.934Z,9.2
2023-04-10T10:42:19.981Z,9.2
2023-04-10T10:48:42.952Z,1.3
2023-04-10T10:55:02.954Z,1.3
2023-04-10T11:01:26.022Z,0.4
2023-04-10T11:07:45.915Z,0.4
2023-04-10T11:14:08.939Z,0.6
2023-04-10T11:20:28.993Z,0.6
2023-04-10T11:26:51.991Z,2.4
2023-04-10T11:33:11.964Z,2.4
2023-04-10T11:39:34.931Z,1.2
2023-04-10T11:45:55.003Z,1.2
2023-04-10T11:52:17.922Z,0.4
2023-04-10T11:58:37.920Z,0.4
2023-04-10T12:05:01.039Z,3.3
2023-04-10T12:11:20.897Z,3.3
2023-04-10T12:17:43.945Z,2.5
2023-04-10T12:24:03.945Z,2.5
2023-04-10T12:30:26.914Z,3.2
2023-04-10T12:36:46.973Z,3.2
2023-04-10T12:43:09.913Z,5.2
2023-04-10T12:49:29.922Z,5.2
2023-04-10T12:55:52.970Z,2
2023-04-10T13:02:13.013Z,2
2023-04-10T13:08:35.939Z,2.2
2023-04-10T13:14:55.923Z,2.2
2023-04-10T13:21:18.928Z,1.4
2023-04-10T13:27:38.936Z,1.4
2023-04-10T13:34:01.919Z,2.1
2023-04-10T13:40:21.927Z,2.1
2023-04-10T13:46:44.902Z,2.3
2023-04-10T13:53:04.944Z,2.3
2023-04-10T13:59:27.965Z,1.9
2023-04-10T14:05:47.936Z,1.9
2023-04-10T14:12:10.966Z,0.8
2023-04-10T14:18:30.900Z,0.8
2023-04-10T14:34:22.799Z,1.3
2023-04-10T14:40:42.928Z,1.3
2023-04-10T14:47:05.899Z,0.9
2023-04-10T14:53:25.990Z,0.9
2023-04-10T14:59:48.894Z,1.6
2023-04-10T15:06:08.915Z,1.6
2023-04-10T15:12:31.959Z,0.8
2023-04-10T15:18:51.900Z,0.8
2023-04-10T15:25:14.969Z,0.5
2023-04-10T15:31:34.929Z,0.5
2023-04-10T15:37:57.920Z,2.2
2023-04-10T15:44:17.937Z,2.2
2023-04-10T15:50:40.966Z,0.9
2023-04-10T15:57:00.968Z,0.9
2023-04-10T16:03:23.992Z,2.4
2023-04-10T16:09:43.942Z,2.4
2023-04-10T16:16:07.013Z,1.8
2023-04-10T16:22:26.919Z,1.8
2023-04-10T16:28:49.996Z,1.7
2023-04-10T16:35:09.906Z,1.7
2023-04-10T16:41:32.929Z,1.6
2023-04-10T16:47:53.031Z,1.6
2023-04-10T16:54:15.891Z,2
2023-04-10T17:00:35.953Z,2
2023-04-10T17:06:58.941Z,1.6
2023-04-10T17:13:20.266Z,1.6
2023-04-10T17:19:41.974Z,1.7
2023-04-10T17:26:01.930Z,1.7
2023-04-10T17:32:25.066Z,1.3
2023-04-10T17:38:44.927Z,1.3
2023-04-10T17:45:07.997Z,2.6
2023-04-10T17:51:28.024Z,2.6
2023-04-10T17:57:50.954Z,0.9
2023-04-10T18:04:11.041Z,0.9
2023-04-10T18:10:33.926Z,2.1
2023-04-10T18:16:53.943Z,2.1
2023-04-10T18:23:17.020Z,0.7
2023-04-10T18:29:36.910Z,0.7
2023-04-10T18:36:00.080Z,1.4
2023-04-10T18:42:19.987Z,1.4
2023-04-10T18:48:42.906Z,1.8
2023-04-10T18:55:02.961Z,1.8
2023-04-10T19:01:26.027Z,2.9
2023-04-10T19:07:53.221Z,2.9
2023-04-10T19:14:08.973Z,3.1
2023-04-10T19:20:51.297Z,3.1
2023-04-10T19:26:52.527Z,2.1
2023-04-10T19:33:11.943Z,2.1
2023-04-10T19:39:34.994Z,3
2023-04-10T19:45:54.952Z,3
2023-04-10T19:52:17.932Z,2.7
2023-04-10T19:58:40.294Z,2.7
2023-04-10T20:14:47.778Z,4.1
2023-04-10T20:21:08.010Z,4.1
2023-04-10T20:27:30.913Z,4.1
2023-04-10T20:33:50.995Z,4.1
2023-04-10T20:40:13.901Z,2.2
2023-04-10T20:46:33.935Z,2.2
2023-04-10T20:52:56.987Z,2.7
2023-04-10T20:59:16.874Z,2.7
2023-04-10T21:05:39.942Z,2.1
2023-04-10T21:11:59.903Z,2.1
2023-04-10T21:18:22.915Z,2.1
2023-04-10T21:24:42.962Z,2.1
2023-04-10T21:31:05.969Z,1.5
2023-04-10T21:37:25.927Z,1.5
2023-04-10T21:43:48.906Z,0.4
2023-04-10T21:50:08.930Z,0.4
2023-04-10T21:56:31.997Z,0.5
2023-04-10T22:22:03.906Z,2.2
2023-04-10T22:28:23.971Z,2.2
2023-04-10T22:34:46.924Z,2.2
2023-04-10T22:41:06.971Z,2.2
2023-04-10T22:47:29.883Z,1
2023-04-10T22:53:50.015Z,1
2023-04-10T23:00:12.954Z,0.9
2023-04-10T23:06:32.966Z,0.9
2023-04-10T23:12:55.907Z,0.6
2023-04-10T23:19:15.962Z,0.6
2023-04-10T23:25:38.890Z,0.2
2023-04-10T23:31:58.967Z,0.2
2023-04-10T23:38:22.056Z,0.4
2023-04-10T23:44:41.999Z,0.4
2023-04-10T23:51:04.919Z,0.2
2023-04-10T23:57:24.966Z,0.2
